Time;durP1;ratioP1;P1;durP2;ratioP2;P2;SDS_P1;SDS_P2;PMS_P1;PMS_P2;Temp;Humidity;BMP_temperature;BMP_pressure;BME280_temperature;BME280_humidity;BME280_pressure;Samples;Min_cycle;Max_cycle;Signal;HPM_P1;HPM_P2
2022/11/11 00:01:12;;;;;;;8.52;3.78;;;;;;;11.22;65.01;101490.66;5031130;28;20119;-76
2022/11/11 00:03:40;;;;;;;6.68;3.00;;;;;;;11.24;65.03;101502.34;5031585;28;20080;-76
2022/11/11 00:06:12;;;;;;;5.20;3.40;;;;;;;11.28;65.10;101517.38;5031561;28;20175;-77
2022/11/11 00:08:40;;;;;;;6.68;3.28;;;;;;;11.30;64.77;101531.88;5031897;28;20458;-77
2022/11/11 00:11:10;;;;;;;5.00;3.58;;;;;;;11.33;64.48;101537.66;5031986;28;20065;-76
2022/11/11 00:13:38;;;;;;;5.13;3.25;;;;;;;11.34;64.27;101542.13;5031732;28;20498;-77
2022/11/11 00:27:12;;;;;;;4.57;3.03;;;;;;;11.18;64.69;101569.31;5034652;28;20056;-76
2022/11/11 00:29:45;;;;;;;5.10;3.17;;;;;;;11.10;64.65;101555.16;5015802;28;20057;-77
2022/11/11 00:32:27;;;;;;;4.30;2.85;;;;;;;11.07;64.69;101561.34;5035171;28;20054;-77
2022/11/11 00:37:41;;;;;;;5.20;3.05;;;;;;;10.87;65.18;101553.94;5041331;28;20175;-76
2022/11/11 00:42:53;;;;;;;5.32;3.08;;;;;;;10.89;66.08;101549.75;5034551;28;20463;-76
2022/11/11 00:45:20;;;;;;;6.85;3.95;;;;;;;10.91;65.67;101550.28;5034627;28;20068;-77
2022/11/11 00:53:19;;;;;;;8.25;3.45;;;;;;;10.85;65.94;101548.66;5027572;28;20061;-76
2022/11/11 00:55:50;;;;;;;6.32;3.60;;;;;;;10.84;65.96;101555.38;5034990;28;20056;-76
2022/11/11 00:58:19;;;;;;;5.28;3.65;;;;;;;10.85;66.08;101545.88;5035017;28;20367;-77
2022/11/11 01:00:49;;;;;;;6.37;3.50;;;;;;;10.91;65.89;101546.69;5034938;28;20058;-77
2022/11/11 01:03:16;;;;;;;;;;;;;;;10.93;65.49;101542.47;5034875;28;20062;-77
2022/11/11 01:05:43;;;;;;;7.38;3.70;;;;;;;10.82;65.88;101545.66;5034692;28;19921;-77
2022/11/11 01:08:10;;;;;;;6.72;3.70;;;;;;;10.87;65.97;101542.81;5034572;28;20065;-76
2022/11/11 01:10:38;;;;;;;8.55;3.67;;;;;;;10.84;65.71;101549.78;5034560;28;20057;-77
2022/11/11 01:13:18;;;;;;;5.60;3.25;;;;;;;10.80;66.07;101554.28;5034461;28;20057;-77
2022/11/11 01:15:48;;;;;;;5.88;3.42;;;;;;;10.84;65.65;101557.34;5035097;28;20160;-76
2022/11/11 01:18:17;;;;;;;6.38;3.40;;;;;;;10.88;65.51;101552.84;5034971;28;20058;-76
2022/11/11 01:20:46;;;;;;;8.05;3.92;;;;;;;10.93;65.15;101550.00;5034558;28;20076;-76
2022/11/11 01:23:14;;;;;;;7.60;3.70;;;;;;;10.88;65.50;101561.22;5041391;28;20049;-77
2022/11/11 01:25:42;;;;;;;6.80;3.28;;;;;;;10.82;65.64;101552.03;5058354;28;20075;-77
2022/11/11 01:28:11;;;;;;;6.30;3.22;;;;;;;10.90;65.11;101559.78;5058454;28;20072;-76
2022/11/11 01:30:38;;;;;;;5.03;3.42;;;;;;;10.92;65.34;101559.50;5058117;28;20067;-76
2022/11/11 01:33:05;;;;;;;4.97;3.42;;;;;;;10.85;65.47;101561.78;5057591;28;20045;-76
2022/11/11 01:35:37;;;;;;;6.88;3.33;;;;;;;10.84;65.49;101569.31;5057793;28;20041;-77
2022/11/11 01:38:05;;;;;;;5.68;3.38;;;;;;;10.89;65.55;101563.69;5057816;28;20045;-76
2022/11/11 01:40:40;;;;;;;6.53;2.78;;;;;;;10.93;64.66;101564.78;5057215;28;20067;-77
2022/11/11 01:43:23;;;;;;;7.82;3.35;;;;;;;10.87;65.45;101560.34;5057167;28;20062;-76
2022/11/11 01:45:54;;;;;;;4.25;3.22;;;;;;;10.88;65.58;101573.19;5057548;28;20513;-76
2022/11/11 01:51:19;;;;;;;5.53;2.90;;;;;;;10.88;65.39;101575.16;5057438;28;20055;-76
2022/11/11 01:53:51;;;;;;;7.13;3.42;;;;;;;10.80;65.37;101575.75;5048172;28;20053;-76
2022/11/11 01:56:19;;;;;;;5.38;3.20;;;;;;;10.75;65.68;101573.81;5032961;28;20445;-75
2022/11/11 01:58:49;;;;;;;5.15;3.10;;;;;;;10.84;64.89;101565.69;5034296;28;20058;-76
2022/11/11 02:01:18;;;;;;;6.70;3.10;;;;;;;10.75;65.71;101565.44;5034331;28;20064;-80
2022/11/11 02:05:41;;;;;;;4.90;3.47;;;;;;;10.82;65.11;101568.75;5032174;28;20064;-80
2022/11/11 02:06:35;;;;;;;5.53;3.00;;;;;;;10.82;65.34;101563.19;5032017;28;20053;-80
2022/11/11 02:09:04;;;;;;;10.38;3.58;;;;;;;10.83;64.57;101564.00;5033244;28;20061;-80
2022/11/11 02:14:38;;;;;;;6.55;3.20;;;;;;;10.89;65.15;101568.44;5036501;28;20088;-80
2022/11/11 02:17:10;;;;;;;6.82;3.72;;;;;;;10.91;64.96;101572.59;5033586;28;20057;-80
2022/11/11 02:19:44;;;;;;;6.93;3.45;;;;;;;10.85;64.88;101562.59;5032831;28;20057;-80
2022/11/11 02:22:20;;;;;;;7.97;3.33;;;;;;;10.88;64.94;101570.41;5033394;28;20053;-80
2022/11/11 02:24:50;;;;;;;7.60;3.15;;;;;;;10.88;65.30;101567.59;5033214;28;20545;-80
2022/11/11 02:27:19;;;;;;;6.82;3.00;;;;;;;10.82;65.09;101560.41;5033361;28;20137;-80
2022/11/11 02:29:49;;;;;;;6.20;3.05;;;;;;;10.80;65.20;101573.78;5013805;28;20069;-80
2022/11/11 02:32:16;;;;;;;6.90;3.17;;;;;;;10.86;65.24;101574.59;5025945;28;20076;-80
2022/11/11 02:34:44;;;;;;;7.30;3.05;;;;;;;10.90;64.83;101573.72;5033090;28;20095;-80
2022/11/11 02:37:12;;;;;;;5.28;2.60;;;;;;;10.89;64.39;101574.00;5032275;28;20057;-80
2022/11/11 02:39:45;;;;;;;5.55;2.85;;;;;;;10.93;64.43;101589.03;5032898;28;20076;-80
2022/11/11 02:42:19;;;;;;;4.57;2.90;;;;;;;10.97;63.98;101590.13;5032557;28;20057;-80
2022/11/11 02:44:46;;;;;;;5.47;2.50;;;;;;;11.03;63.76;101599.28;5032711;28;20065;-80
2022/11/11 02:47:13;;;;;;;5.15;3.05;;;;;;;11.07;63.92;101600.38;5031893;28;20386;-80
2022/11/11 02:49:42;;;;;;;6.38;3.15;;;;;;;11.07;63.74;101604.00;5033050;28;20057;-80
2022/11/11 02:52:09;;;;;;;4.35;2.55;;;;;;;11.07;63.70;101605.94;5032472;28;20053;-80
2022/11/11 02:54:38;;;;;;;6.40;2.53;;;;;;;10.96;63.71;101586.50;5032869;28;20144;-80
2022/11/11 02:57:08;;;;;;;5.85;2.80;;;;;;;10.96;63.75;101589.28;5031226;28;20060;-80
2022/11/11 02:59:41;;;;;;;6.55;3.00;;;;;;;10.96;63.81;101585.66;5032855;28;20057;-80
2022/11/11 03:02:09;;;;;;;5.63;2.70;;;;;;;10.91;63.85;101574.56;5032724;28;20049;-80
2022/11/11 03:04:38;;;;;;;4.47;2.85;;;;;;;10.94;63.35;101572.03;5032273;28;20080;-80
2022/11/11 03:07:06;;;;;;;5.85;2.92;;;;;;;10.82;64.10;101576.28;5032591;28;20076;-80
2022/11/11 03:09:35;;;;;;;7.53;3.20;;;;;;;10.84;64.36;101574.88;5032725;28;20084;-80
2022/11/11 03:12:02;;;;;;;5.13;3.00;;;;;;;10.82;64.21;101579.91;5032491;28;20064;-79
2022/11/11 03:14:30;;;;;;;5.97;2.90;;;;;;;10.85;63.79;101579.31;5032916;28;20057;-80
2022/11/11 03:19:43;;;;;;;7.63;3.30;;;;;;;10.75;64.07;101568.22;5035064;28;20064;-79
2022/11/11 03:22:09;;;;;;;4.25;2.90;;;;;;;10.72;63.85;101571.63;5033467;28;20057;-76
2022/11/11 03:27:22;;;;;;;9.45;2.95;;;;;;;10.74;63.96;101559.06;5015653;28;20065;-76
2022/11/11 03:29:50;;;;;;;6.40;3.20;;;;;;;10.68;64.05;101557.41;5012424;28;20068;-76
2022/11/11 03:32:19;;;;;;;5.80;2.85;;;;;;;10.70;64.66;101565.50;5012082;28;20061;-77
2022/11/11 03:34:49;;;;;;;4.90;3.08;;;;;;;10.73;63.94;101549.03;5012761;28;20062;-76
2022/11/11 03:40:04;;;;;;;4.65;2.83;;;;;;;10.80;63.39;101557.06;5022661;28;20068;-77
2022/11/11 03:42:31;;;;;;;5.00;2.80;;;;;;;10.70;63.89;101557.13;5032222;28;20124;-80
2022/11/11 03:45:02;;;;;;;4.80;2.67;;;;;;;10.67;64.21;101552.97;5031815;28;20057;-80
2022/11/11 03:47:30;;;;;;;5.88;2.78;;;;;;;10.69;64.27;101555.50;5031678;28;20053;-80
2022/11/11 03:49:58;;;;;;;4.75;2.95;;;;;;;10.69;63.94;101552.69;5035830;28;20419;-79
2022/11/11 03:52:25;;;;;;;4.75;2.55;;;;;;;10.71;63.97;101547.66;5035909;28;20390;-79
2022/11/11 03:54:52;;;;;;;5.40;2.58;;;;;;;10.72;64.03;101544.56;5035322;28;20060;-80
2022/11/11 03:57:32;;;;;;;7.18;2.80;;;;;;;10.63;64.02;101542.72;5035843;28;20081;-80
2022/11/11 03:59:59;;;;;;;5.55;3.00;;;;;;;10.65;63.82;101540.47;5035970;28;20180;-79
2022/11/11 04:11:06;;;;;;;5.75;2.85;;;;;;;10.89;63.11;101543.34;4961309;28;20066;-80
2022/11/11 04:16:18;;;;;;;3.92;2.75;;;;;;;10.84;63.11;101552.59;5036053;28;20088;-81
2022/11/11 04:21:45;;;;;;;5.82;2.58;;;;;;;10.87;63.22;101560.34;5040605;28;20057;-79
2022/11/11 04:27:02;;;;;;;5.85;2.60;;;;;;;10.86;63.13;101557.88;5040976;28;20056;-80
2022/11/11 04:29:29;;;;;;;4.97;2.33;;;;;;;10.91;63.11;101569.81;5035672;28;20049;-79
2022/11/11 04:34:44;;;;;;;5.50;2.63;;;;;;;10.83;63.15;101575.16;5036020;28;20060;-80
2022/11/11 04:37:14;;;;;;;6.15;2.70;;;;;;;10.83;62.54;101581.56;5034628;28;20068;-80
2022/11/11 04:42:26;;;;;;;5.47;2.47;;;;;;;10.85;62.78;101575.72;5038408;28;20060;-80
2022/11/11 04:47:52;;;;;;;5.72;3.00;;;;;;;10.88;62.72;101573.19;5040901;28;20509;-80
2022/11/11 04:50:19;;;;;;;4.70;2.85;;;;;;;10.78;63.23;101573.25;5034669;28;20053;-80
2022/11/11 04:52:48;;;;;;;5.32;2.97;;;;;;;10.72;63.63;101572.44;5035009;28;20076;-80
2022/11/11 04:58:01;;;;;;;4.45;2.53;;;;;;;10.80;63.22;101576.59;5035533;28;20426;-80
2022/11/11 05:00:28;;;;;;;4.13;2.50;;;;;;;10.78;63.09;101578.81;5035085;28;20057;-80
2022/11/11 05:11:15;;;;;;;5.10;2.85;;;;;;;10.63;63.67;101565.00;5042704;28;20057;-80
2022/11/11 05:22:07;;;;;;;5.85;2.78;;;;;;;10.66;63.36;101554.09;5027156;28;20056;-80
2022/11/11 05:27:20;;;;;;;5.72;3.38;;;;;;;10.60;63.07;101558.03;5064413;28;20044;-80
2022/11/11 05:29:48;;;;;;;7.35;3.83;;;;;;;10.62;63.09;101564.13;5057648;28;20057;-80
2022/11/11 05:32:19;;;;;;;4.10;2.65;;;;;;;10.62;63.46;101563.31;5057560;28;20055;-80
2022/11/11 05:34:47;;;;;;;5.45;2.90;;;;;;;10.64;63.54;101570.25;5057709;28;20041;-81
2022/11/11 05:37:15;;;;;;;4.45;2.90;;;;;;;10.74;63.03;101572.16;5057270;28;20068;-79
2022/11/11 05:39:44;;;;;;;5.90;2.92;;;;;;;10.76;63.00;101581.88;5057504;28;20056;-81
2022/11/11 05:42:11;;;;;;;4.90;3.13;;;;;;;10.76;62.97;101573.53;5057735;28;20047;-81
2022/11/11 05:44:39;;;;;;;3.88;2.53;;;;;;;10.80;63.17;101579.38;5057558;28;20397;-81
2022/11/11 05:47:06;;;;;;;4.63;2.60;;;;;;;10.80;62.95;101586.91;5057067;28;20047;-80
2022/11/11 05:49:33;;;;;;;5.53;3.42;;;;;;;10.78;62.51;101581.59;5037024;28;20493;-80
2022/11/11 05:52:01;;;;;;;5.10;2.65;;;;;;;10.80;62.92;101584.94;5028527;28;20057;-79
2022/11/11 05:54:28;;;;;;;6.10;2.67;;;;;;;10.80;62.39;101582.16;5033876;28;20057;-80
2022/11/11 05:56:57;;;;;;;5.10;3.20;;;;;;;10.79;62.84;101579.66;5035495;28;20060;-80
2022/11/11 05:59:25;;;;;;;5.25;3.28;;;;;;;10.78;62.88;101584.41;5028908;28;20061;-80
2022/11/11 06:01:52;;;;;;;4.60;3.17;;;;;;;10.77;62.69;101582.72;5028693;28;20057;-81
2022/11/11 06:04:19;;;;;;;5.95;2.63;;;;;;;10.73;62.96;101592.78;5030181;28;20054;-80
2022/11/11 06:06:47;;;;;;;4.55;3.25;;;;;;;10.78;62.64;101595.53;5039129;28;20053;-80
2022/11/11 06:09:14;;;;;;;3.97;2.88;;;;;;;10.74;62.37;101600.03;5033531;28;20049;-81
2022/11/11 06:11:41;;;;;;;4.47;2.80;;;;;;;10.75;62.91;101596.09;5028945;28;20065;-80
2022/11/11 06:14:10;;;;;;;4.57;2.88;;;;;;;10.77;62.55;101605.88;5032195;28;20064;-80
2022/11/11 06:16:37;;;;;;;6.78;3.22;;;;;;;10.75;62.44;101612.81;5033499;28;20062;-80
2022/11/11 06:19:05;;;;;;;3.47;2.72;;;;;;;10.77;62.49;101613.38;5032829;28;20049;-80
2022/11/11 06:21:55;;;;;;;5.70;2.90;;;;;;;10.75;62.49;101605.31;5032805;28;20521;-80
2022/11/11 06:24:21;;;;;;;4.72;3.05;;;;;;;10.68;62.60;101623.47;5031688;28;20068;-80
2022/11/11 06:26:47;;;;;;;5.07;2.55;;;;;;;10.73;63.41;101627.06;5031551;28;20064;-80
2022/11/11 06:29:16;;;;;;;5.47;2.60;;;;;;;10.71;62.90;101628.47;5019946;28;20056;-80
2022/11/11 06:31:44;;;;;;;5.00;2.80;;;;;;;10.74;63.29;101639.88;5032880;28;20080;-81
2022/11/11 06:34:11;;;;;;;3.67;2.22;;;;;;;10.73;63.01;101640.16;5028389;28;20060;-80
2022/11/11 06:36:39;;;;;;;3.58;2.75;;;;;;;10.74;63.07;101639.88;5029887;28;20050;-79
2022/11/11 06:39:07;;;;;;;4.75;2.72;;;;;;;10.79;62.45;101636.22;5030572;28;20046;-80
2022/11/11 06:41:34;;;;;;;4.53;2.70;;;;;;;10.78;62.58;101640.13;5031794;28;20064;-80
2022/11/11 06:44:02;;;;;;;3.65;2.55;;;;;;;10.80;62.08;101639.84;5032010;28;20406;-80
2022/11/11 06:46:31;;;;;;;5.65;2.65;;;;;;;10.79;62.30;101644.56;5032923;28;20053;-80
2022/11/11 06:48:58;;;;;;;3.77;2.40;;;;;;;10.90;61.98;101649.00;5031805;28;20128;-80
2022/11/11 06:51:25;;;;;;;6.15;3.00;;;;;;;10.91;61.99;101650.63;5030802;28;20060;-80
2022/11/11 06:53:53;;;;;;;4.47;2.95;;;;;;;10.96;61.72;101650.63;5029587;28;20053;-80
2022/11/11 06:56:20;;;;;;;5.22;2.67;;;;;;;10.87;61.85;101657.09;5031617;28;20058;-80
2022/11/11 06:58:47;;;;;;;5.65;2.55;;;;;;;10.93;61.91;101667.09;5032006;28;20068;-80
2022/11/11 07:01:14;;;;;;;8.13;2.63;;;;;;;11.00;61.98;101664.81;5031919;28;20057;-81
2022/11/11 07:03:43;;;;;;;4.32;2.78;;;;;;;11.08;61.45;101666.16;5032130;28;20060;-81
2022/11/11 07:06:14;;;;;;;4.40;2.40;;;;;;;11.12;61.44;101670.03;5032174;28;20064;-80
2022/11/11 07:08:43;;;;;;;4.95;2.45;;;;;;;11.07;61.36;101670.09;5023969;28;20061;-81
2022/11/11 07:11:11;;;;;;;5.30;2.40;;;;;;;11.17;60.89;101679.22;5030708;28;20053;-79
2022/11/11 07:13:38;;;;;;;3.70;2.28;;;;;;;11.12;61.05;101673.66;5031630;28;20057;-79
2022/11/11 07:16:06;;;;;;;4.82;2.72;;;;;;;11.28;60.42;101679.16;5030806;28;20422;-79
2022/11/11 07:18:34;;;;;;;3.25;2.17;;;;;;;11.40;60.28;101679.59;5030741;28;20395;-79
2022/11/11 07:21:02;;;;;;;5.63;2.90;;;;;;;11.52;60.27;101677.28;5031988;28;20088;-79
2022/11/11 07:23:30;;;;;;;4.85;2.55;;;;;;;11.64;59.74;101674.13;5034836;28;20060;-80
2022/11/11 07:25:57;;;;;;;5.03;2.70;;;;;;;11.75;60.26;101681.25;5038928;28;20425;-79
2022/11/11 07:28:25;;;;;;;6.90;2.80;;;;;;;11.82;59.35;101682.88;5037881;28;20064;-79
2022/11/11 07:30:52;;;;;;;4.57;2.90;;;;;;;11.90;58.92;101683.09;5033736;28;20053;-80
2022/11/11 07:33:19;;;;;;;4.78;2.85;;;;;;;11.98;58.50;101685.25;5034367;28;20053;-76
2022/11/11 07:35:46;;;;;;;4.88;2.88;;;;;;;12.11;58.82;101689.31;5038741;28;20061;-79
2022/11/11 07:38:16;;;;;;;3.88;2.40;;;;;;;12.21;58.64;101693.97;5037984;28;20176;-79
2022/11/11 07:40:44;;;;;;;3.93;2.40;;;;;;;12.29;58.06;101698.94;5038495;28;20494;-79
2022/11/11 07:43:11;;;;;;;4.00;2.30;;;;;;;12.42;57.19;101693.78;5037722;28;20060;-79
2022/11/11 07:45:39;;;;;;;3.65;2.20;;;;;;;12.52;57.55;101691.69;5037033;28;20056;-78
2022/11/11 07:48:06;;;;;;;3.13;2.17;;;;;;;12.41;57.09;101684.56;5038419;28;20058;-78
2022/11/11 07:50:34;;;;;;;3.22;2.35;;;;;;;12.52;56.76;101665.72;5038421;28;20054;-79
2022/11/11 07:53:02;;;;;;;4.68;2.70;;;;;;;12.49;56.72;101677.47;5038293;28;20065;-78
2022/11/11 07:55:31;;;;;;;5.97;2.28;;;;;;;12.37;56.95;101683.50;5038555;28;20060;-81
2022/11/11 07:57:58;;;;;;;4.60;2.63;;;;;;;12.66;56.20;101688.16;5029718;28;20057;-82
2022/11/11 08:00:28;;;;;;;3.63;2.22;;;;;;;12.63;55.61;101685.97;5028705;28;20056;-81
2022/11/11 08:02:57;;;;;;;;;;;;;;;12.79;55.72;101693.88;5028375;28;20057;-80
2022/11/11 08:05:24;;;;;;;3.22;2.15;;;;;;;13.06;54.65;101691.53;5006033;28;19921;-81
2022/11/11 08:07:51;;;;;;;5.43;2.17;;;;;;;13.16;54.36;101685.81;4999622;28;20058;-80
2022/11/11 08:10:19;;;;;;;6.30;2.33;;;;;;;13.25;53.63;101689.59;5003385;28;20057;-81
2022/11/11 08:15:38;;;;;;;3.10;1.98;;;;;;;13.91;52.25;101690.50;5007830;28;20073;-80
2022/11/11 08:18:06;;;;;;;4.97;2.05;;;;;;;14.35;51.01;101697.53;5009571;28;20414;-80
2022/11/11 08:20:34;;;;;;;3.42;2.15;;;;;;;14.53;50.01;101697.75;5010207;28;20058;-81
2022/11/11 08:23:04;;;;;;;4.05;2.13;;;;;;;15.02;49.61;101697.00;5007733;28;20066;-81
2022/11/11 08:25:32;;;;;;;2.78;1.73;;;;;;;15.73;48.40;101693.69;5010459;28;20069;-80
2022/11/11 08:28:04;;;;;;;3.92;2.00;;;;;;;16.12;47.26;101691.28;5009357;28;20130;-80
2022/11/11 08:30:31;;;;;;;3.58;2.17;;;;;;;16.88;45.71;101695.91;5008331;28;20053;-82
2022/11/11 08:32:59;;;;;;;2.55;1.77;;;;;;;17.54;43.87;101698.66;5008535;28;20058;-82
2022/11/11 08:35:27;;;;;;;4.03;1.83;;;;;;;17.97;43.31;101690.13;5003254;28;20053;-82
2022/11/11 08:37:55;;;;;;;3.15;2.10;;;;;;;18.38;41.32;101694.34;5003241;28;20062;-82
2022/11/11 08:40:23;;;;;;;3.65;1.80;;;;;;;18.66;40.80;101676.94;5005318;28;20069;-81
2022/11/11 08:42:51;;;;;;;2.63;1.50;;;;;;;18.43;40.93;101690.50;5002387;28;20046;-80
2022/11/11 08:45:21;;;;;;;2.55;1.70;;;;;;;18.97;40.08;101682.28;5004794;28;20054;-80
2022/11/11 08:47:48;;;;;;;2.83;1.70;;;;;;;19.52;38.07;101688.00;5002455;28;20054;-80
2022/11/11 08:50:16;;;;;;;3.30;1.70;;;;;;;19.54;38.05;101683.66;5005042;28;20076;-81
2022/11/11 08:52:46;;;;;;;3.08;1.48;;;;;;;20.15;37.28;101668.94;5000218;28;20461;-81
2022/11/11 08:55:13;;;;;;;2.60;1.83;;;;;;;20.42;36.30;101681.59;5006606;28;20049;-81
2022/11/11 08:57:41;;;;;;;2.92;1.50;;;;;;;20.26;36.31;101674.94;4993913;28;20502;-81
2022/11/11 09:00:10;;;;;;;3.58;1.58;;;;;;;20.04;37.21;101676.22;4994515;28;20070;-81
2022/11/11 09:02:39;;;;;;;3.60;1.50;;;;;;;21.01;35.28;101677.47;4999096;28;20506;-80
2022/11/11 09:05:07;;;;;;;3.17;1.50;;;;;;;21.24;34.66;101680.59;5026564;28;20053;-78
2022/11/11 09:07:34;;;;;;;2.10;1.30;;;;;;;21.80;34.63;101688.34;5018749;28;20498;-79
2022/11/11 09:10:01;;;;;;;3.50;1.75;;;;;;;22.89;33.02;101685.13;5020017;28;20511;-79
2022/11/11 09:12:30;;;;;;;2.58;1.60;;;;;;;23.64;31.71;101682.31;5017358;28;20060;-79
2022/11/11 09:14:57;;;;;;;3.58;1.70;;;;;;;23.79;31.29;101686.31;5026363;28;20521;-80
2022/11/11 09:17:24;;;;;;;3.60;1.83;;;;;;;23.23;31.34;101690.41;5011366;28;20065;-79
2022/11/11 09:19:53;;;;;;;2.10;1.40;;;;;;;22.99;31.56;101702.78;5015077;28;20057;-80
2022/11/11 09:22:21;;;;;;;1.70;1.13;;;;;;;23.40;31.20;101689.16;5018694;28;20053;-79
2022/11/11 09:24:49;;;;;;;3.63;1.57;;;;;;;24.02;30.63;101686.34;5024248;28;20516;-81
2022/11/11 09:27:16;;;;;;;2.30;1.23;;;;;;;24.07;30.14;101686.88;5023675;28;20578;-80
2022/11/11 09:29:43;;;;;;;2.80;1.30;;;;;;;24.26;29.70;101696.56;5022661;28;20064;-78
2022/11/11 09:32:11;;;;;;;1.80;1.20;;;;;;;25.01;29.56;101699.88;5017505;28;20057;-81
2022/11/11 09:34:38;;;;;;;3.35;1.30;;;;;;;25.12;28.71;101693.13;5023170;28;20156;-79
2022/11/11 09:37:07;;;;;;;1.90;1.20;;;;;;;24.90;28.76;101692.00;5020805;28;20054;-78
2022/11/11 09:39:35;;;;;;;3.13;1.23;;;;;;;24.40;30.00;101693.16;5026767;28;20425;-81
2022/11/11 09:42:11;;;;;;;2.28;1.17;;;;;;;23.24;31.00;101690.00;5025849;28;20054;-80
2022/11/11 09:44:58;;;;;;;1.95;1.40;;;;;;;23.61;30.49;101685.94;5023118;28;20151;-81
2022/11/11 09:47:35;;;;;;;2.35;1.40;;;;;;;23.47;31.06;101690.09;5023785;28;20509;-79
2022/11/11 09:50:05;;;;;;;2.70;1.50;;;;;;;24.47;29.45;101690.44;5016941;28;20065;-80
2022/11/11 09:52:37;;;;;;;2.78;1.60;;;;;;;25.30;28.06;101690.56;5020381;28;20064;-81
2022/11/11 09:55:12;;;;;;;2.15;1.35;;;;;;;26.00;27.66;101698.78;5023344;28;20050;-79
2022/11/11 09:57:46;;;;;;;2.10;1.30;;;;;;;26.51;27.03;101698.06;5021411;28;20069;-79
2022/11/11 10:00:18;;;;;;;2.40;1.27;;;;;;;26.87;26.39;101707.75;5019731;28;20426;-81
2022/11/11 10:02:49;;;;;;;2.05;1.20;;;;;;;25.94;26.97;101695.47;5024645;28;20053;-81
2022/11/11 10:05:22;;;;;;;2.65;1.25;;;;;;;26.48;26.97;101704.53;5025126;28;20060;-83
2022/11/11 10:07:57;;;;;;;1.92;1.30;;;;;;;25.47;27.66;101706.28;5024247;28;20058;-81
2022/11/11 10:10:30;;;;;;;4.10;1.30;;;;;;;24.91;29.16;101707.06;5021688;28;21951;-80
2022/11/11 10:12:58;;;;;;;3.15;1.52;;;;;;;24.65;28.44;101710.69;5020648;28;20053;-81
2022/11/11 10:15:31;;;;;;;1.95;1.20;;;;;;;24.26;29.70;101711.63;5023194;28;20049;-80
2022/11/11 10:18:15;;;;;;;2.60;1.20;;;;;;;24.86;28.25;101713.06;5022091;28;20498;-80
2022/11/11 10:20:52;;;;;;;2.35;1.23;;;;;;;25.37;28.55;101718.38;5019079;28;20058;-80
2022/11/11 10:23:29;;;;;;;1.98;1.27;;;;;;;25.72;27.55;101715.16;5018018;28;20061;-80
2022/11/11 10:25:59;;;;;;;2.20;1.35;;;;;;;25.86;27.47;101717.34;5026686;28;20061;-81
2022/11/11 10:28:32;;;;;;;2.03;1.20;;;;;;;25.53;28.04;101721.00;5026055;28;20056;-81
2022/11/11 10:31:03;;;;;;;3.30;1.23;;;;;;;25.06;27.98;101719.50;5020398;28;20072;-80
2022/11/11 10:33:38;;;;;;;3.42;1.60;;;;;;;24.34;29.37;101720.28;5021955;28;20053;-82
2022/11/11 10:36:13;;;;;;;1.67;1.23;;;;;;;24.51;29.04;101722.69;5017274;28;20126;-81
2022/11/11 10:38:49;;;;;;;2.35;1.30;;;;;;;23.99;30.15;101726.97;5020557;28;20687;-81
2022/11/11 10:41:24;;;;;;;1.75;1.00;;;;;;;24.66;28.82;101732.31;5022950;28;20057;-81
2022/11/11 10:43:51;;;;;;;2.67;0.98;;;;;;;24.46;29.23;101726.66;5022047;28;20064;-81
2022/11/11 10:46:23;;;;;;;2.38;1.10;;;;;;;24.11;29.77;101730.47;5024512;28;20161;-81
2022/11/11 10:48:56;;;;;;;4.15;1.10;;;;;;;24.37;28.57;101728.09;5017028;28;22026;-81
2022/11/11 10:51:27;;;;;;;9.07;1.48;;;;;;;24.60;28.82;101739.53;5013205;28;20054;-81
2022/11/11 10:54:04;;;;;;;2.20;1.10;;;;;;;25.51;27.57;101735.69;5020864;28;20058;-81
2022/11/11 10:56:39;;;;;;;2.65;1.13;;;;;;;25.72;27.14;101731.44;5019138;28;20525;-82
2022/11/11 10:59:16;;;;;;;2.97;1.00;;;;;;;26.07;26.82;101739.66;5017342;28;20065;-81
2022/11/11 11:01:52;;;;;;;2.28;1.13;;;;;;;26.30;26.48;101735.81;5022248;28;20062;-81
2022/11/11 11:04:26;;;;;;;2.97;1.20;;;;;;;26.71;26.27;101733.78;5014858;28;20057;-82
2022/11/11 11:06:55;;;;;;;2.15;1.00;;;;;;;27.22;25.30;101729.28;5017384;28;20061;-82
2022/11/11 11:09:30;;;;;;;1.98;1.15;;;;;;;27.83;25.54;101729.59;5021281;28;20076;-83
2022/11/11 11:12:01;;;;;;;1.50;1.08;;;;;;;28.37;23.88;101724.03;5015816;28;20065;-82
2022/11/11 11:14:34;;;;;;;4.28;1.55;;;;;;;27.93;24.57;101725.16;5015265;28;20053;-82
2022/11/11 11:17:10;;;;;;;2.97;1.30;;;;;;;27.27;25.00;101719.50;5016591;28;20080;-81
2022/11/11 11:19:39;;;;;;;2.38;1.20;;;;;;;27.62;24.43;101723.78;5017322;28;20525;-81
2022/11/11 11:22:06;;;;;;;2.03;1.00;;;;;;;26.78;25.42;101715.06;5018365;28;20392;-80
2022/11/11 11:24:36;;;;;;;2.42;1.10;;;;;;;26.45;25.98;101713.91;5016564;28;20063;-78
2022/11/11 11:27:06;;;;;;;2.60;1.30;;;;;;;27.07;25.24;101707.50;5022533;28;20049;-78
2022/11/11 11:29:36;;;;;;;2.28;1.10;;;;;;;26.91;25.50;101710.66;5018717;28;20058;-82
2022/11/11 11:32:15;;;;;;;2.08;1.30;;;;;;;26.70;25.36;101709.28;5019863;28;20494;-79
2022/11/11 11:34:48;;;;;;;2.40;1.15;;;;;;;25.42;27.13;101703.75;5020777;28;20084;-87
2022/11/11 11:37:16;;;;;;;3.47;1.27;;;;;;;25.00;28.29;101706.78;5020151;28;20062;-85
2022/11/11 11:39:45;;;;;;;3.15;1.20;;;;;;;25.59;27.19;101710.09;5019382;28;20061;-85
2022/11/11 11:42:31;;;;;;;2.50;1.30;;;;;;;25.69;27.05;101698.81;5007616;28;20057;-85
2022/11/11 11:45:15;;;;;;;2.70;1.60;;;;;;;25.91;27.32;101694.22;5021027;28;20049;-82
2022/11/11 11:47:51;;;;;;;2.50;1.55;;;;;;;26.20;26.85;101697.34;5021121;28;20057;-82
2022/11/11 11:50:40;;;;;;;2.05;1.30;;;;;;;25.72;27.04;101698.03;5017061;28;20057;-81
2022/11/11 11:53:28;;;;;;;2.00;1.73;;;;;;;25.56;27.56;101696.59;5021395;28;20053;-81
2022/11/11 11:56:04;;;;;;;2.70;2.20;;;;;;;26.08;27.17;101689.06;5020637;28;20065;-81
2022/11/11 11:58:40;;;;;;;3.97;2.58;;;;;;;26.39;26.55;101693.44;5019533;28;20057;-81
2022/11/11 12:01:14;;;;;;;2.80;2.60;;;;;;;26.32;26.07;101691.34;5016071;28;20422;-82
2022/11/11 12:04:05;;;;;;;3.25;2.97;;;;;;;25.72;26.52;101688.63;5016896;28;20414;-82
2022/11/11 12:06:42;;;;;;;4.07;3.67;;;;;;;26.10;26.06;101692.34;5018393;28;20396;-83
2022/11/11 12:09:22;;;;;;;3.30;3.00;;;;;;;26.07;26.78;101690.28;5021620;28;20065;-84
2022/11/11 12:11:58;;;;;;;3.17;2.97;;;;;;;26.76;26.29;101686.88;5019666;28;20065;-83
2022/11/11 12:14:40;;;;;;;3.83;3.53;;;;;;;26.76;25.40;101691.78;5025647;28;20057;-84
2022/11/11 12:17:26;;;;;;;2.28;2.08;;;;;;;26.54;25.67;101688.69;5020595;28;20072;-81
2022/11/11 12:20:02;;;;;;;3.70;3.50;;;;;;;25.86;26.25;101683.09;5020706;28;20049;-80
2022/11/11 12:22:49;;;;;;;4.60;4.30;;;;;;;26.42;26.25;101681.25;5025301;28;20057;-79
2022/11/11 12:25:22;;;;;;;6.05;5.65;;;;;;;27.02;24.79;101682.13;5023101;28;20050;-80
2022/11/11 12:28:02;;;;;;;6.38;5.97;;;;;;;27.41;24.19;101684.44;5013979;28;20419;-79
2022/11/11 12:30:30;;;;;;;6.82;6.30;;;;;;;27.50;23.78;101677.09;5024131;28;20065;-80
2022/11/11 12:33:30;;;;;;;5.00;4.70;;;;;;;27.64;23.87;101681.25;5023958;28;20057;-80
2022/11/11 12:36:07;;;;;;;4.90;4.55;;;;;;;26.16;25.22;101678.53;5017648;28;20053;-79
2022/11/11 12:38:50;;;;;;;5.32;4.93;;;;;;;26.88;25.27;101680.00;5022824;28;20525;-80
2022/11/11 12:41:26;;;;;;;4.38;4.10;;;;;;;27.03;24.57;101670.31;5018758;28;20161;-79
2022/11/11 12:44:03;;;;;;;5.80;5.50;;;;;;;26.76;24.94;101678.28;5017017;28;20057;-80
2022/11/11 12:46:42;;;;;;;5.38;4.97;;;;;;;27.29;24.72;101677.00;5026172;28;20061;-79
2022/11/11 12:49:29;;;;;;;5.68;5.38;;;;;;;27.84;24.91;101673.13;5029152;28;20061;-80
2022/11/11 12:52:06;;;;;;;5.90;5.43;;;;;;;26.99;24.78;101680.91;5031590;28;20058;-80
2022/11/11 12:54:43;;;;;;;5.30;4.80;;;;;;;27.27;24.42;101677.41;5033316;28;20049;-78
2022/11/11 12:57:22;;;;;;;7.50;7.10;;;;;;;27.37;24.25;101666.44;5033528;28;20061;-79
2022/11/11 13:00:03;;;;;;;;;;;;;;;27.52;24.08;101659.53;5034568;28;20422;-80
2022/11/11 13:02:45;;;;;;;5.10;4.80;;;;;;;27.46;23.85;101664.00;5033656;28;19921;-80
2022/11/11 13:05:18;;;;;;;6.15;5.75;;;;;;;27.18;24.07;101656.91;5032899;28;20049;-79
2022/11/11 13:08:06;;;;;;;6.00;5.70;;;;;;;27.18;24.10;101650.38;5036104;28;20395;-80
2022/11/11 13:10:41;;;;;;;5.90;5.50;;;;;;;27.22;24.39;101654.06;5018581;28;20061;-81